Disclaimer

Please do not use the information listed here in-flight or in-navigation, as they are not provided to us by the airports but are provided by volunteers, so they might be outdated.

Search


Regions


Airport information page

Radio informations:
INFO - 122.1 MHz

Airport informations:
Latitude: 29° 15' 37.00" N
Longitude: 050° 19' 26.00" E
Elevation: 17 feet - 5 meters
Operating hours: From sunrise to sunset (SR-SS)
Operating agency: Civil government, landing fees and diplomatic clearance may be required
Timezone: UTC+3:30
Fuel: Jet A1, without icing nhibitor.

Runway information:
14/32 - 5922 x 148 feet< - >1805 x 45 meters

Recent METARs:
OIBQ 201500Z 30012KT 9999 FEW035 21/16 Q1018
OIBQ 201500Z 30012KT 9999 FEW035 21/16 Q1018
OIBQ 201500Z 30012KT 9999 FEW035 21/16 Q1018

Airport on the map: